sensor_id;sensor_type;location;lat;lon;timestamp;temperature;humidity
41060;DHT22;26811;53.160;8.202;2022-10-16T00:02:57;12.40;99.90
41060;DHT22;26811;53.160;8.202;2022-10-16T00:07:58;12.40;99.90
41060;DHT22;26811;53.160;8.202;2022-10-16T00:12:58;12.30;99.90
41060;DHT22;26811;53.160;8.202;2022-10-16T00:17:59;12.30;99.90
41060;DHT22;26811;53.160;8.202;2022-10-16T00:22:59;12.30;99.90
41060;DHT22;26811;53.160;8.202;2022-10-16T00:28:00;12.20;99.90
41060;DHT22;26811;53.160;8.202;2022-10-16T00:33:00;12.20;99.90
41060;DHT22;26811;53.160;8.202;2022-10-16T00:38:01;12.20;99.90
41060;DHT22;26811;53.160;8.202;2022-10-16T00:43:01;12.20;99.90
41060;DHT22;26811;53.160;8.202;2022-10-16T00:48:06;12.20;99.90
41060;DHT22;26811;53.160;8.202;2022-10-16T00:53:07;12.20;99.90
41060;DHT22;26811;53.160;8.202;2022-10-16T00:58:08;12.10;99.90
41060;DHT22;26811;53.160;8.202;2022-10-16T01:08:34;12.10;99.90
41060;DHT22;26811;53.160;8.202;2022-10-16T01:13:38;12.00;99.90
41060;DHT22;26811;53.160;8.202;2022-10-16T01:18:44;12.00;99.90
41060;DHT22;26811;53.160;8.202;2022-10-16T01:23:55;12.00;99.90
41060;DHT22;26811;53.160;8.202;2022-10-16T01:29:03;12.00;99.90
41060;DHT22;26811;53.160;8.202;2022-10-16T01:34:06;11.90;99.90
41060;DHT22;26811;53.160;8.202;2022-10-16T01:39:09;12.00;99.90
41060;DHT22;26811;53.160;8.202;2022-10-16T01:44:12;12.00;99.90
41060;DHT22;26811;53.160;8.202;2022-10-16T01:49:16;12.10;99.90
41060;DHT22;26811;53.160;8.202;2022-10-16T01:54:17;12.00;99.90
41060;DHT22;26811;53.160;8.202;2022-10-16T01:59:20;12.10;99.90
41060;DHT22;26811;53.160;8.202;2022-10-16T02:04:26;12.20;99.90
41060;DHT22;26811;53.160;8.202;2022-10-16T02:09:29;12.30;99.90
41060;DHT22;26811;53.160;8.202;2022-10-16T02:14:29;12.30;99.90
41060;DHT22;26811;53.160;8.202;2022-10-16T02:19:30;12.30;99.90
41060;DHT22;26811;53.160;8.202;2022-10-16T02:25:32;12.30;99.90
41060;DHT22;26811;53.160;8.202;2022-10-16T02:30:03;12.30;99.90
41060;DHT22;26811;53.160;8.202;2022-10-16T02:35:08;12.20;99.90
41060;DHT22;26811;53.160;8.202;2022-10-16T02:40:09;12.20;99.90
41060;DHT22;26811;53.160;8.202;2022-10-16T02:45:11;12.20;99.90
41060;DHT22;26811;53.160;8.202;2022-10-16T02:50:12;12.30;99.90
41060;DHT22;26811;53.160;8.202;2022-10-16T02:55:12;12.30;99.90
41060;DHT22;26811;53.160;8.202;2022-10-16T03:00:14;12.30;99.90
41060;DHT22;26811;53.160;8.202;2022-10-16T03:05:18;12.30;99.90
41060;DHT22;26811;53.160;8.202;2022-10-16T03:10:19;12.30;99.90
41060;DHT22;26811;53.160;8.202;2022-10-16T03:15:19;12.20;99.90
41060;DHT22;26811;53.160;8.202;2022-10-16T03:20:20;12.20;99.90
41060;DHT22;26811;53.160;8.202;2022-10-16T03:25:20;12.20;99.90
41060;DHT22;26811;53.160;8.202;2022-10-16T03:30:21;12.20;99.90
41060;DHT22;26811;53.160;8.202;2022-10-16T03:35:22;12.30;99.90
41060;DHT22;26811;53.160;8.202;2022-10-16T03:40:23;12.40;99.90
41060;DHT22;26811;53.160;8.202;2022-10-16T03:45:24;12.50;99.90
41060;DHT22;26811;53.160;8.202;2022-10-16T03:50:24;12.60;99.90
41060;DHT22;26811;53.160;8.202;2022-10-16T03:55:25;12.60;99.90
41060;DHT22;26811;53.160;8.202;2022-10-16T04:00:25;12.70;99.90
41060;DHT22;26811;53.160;8.202;2022-10-16T04:05:26;12.80;99.90
41060;DHT22;26811;53.160;8.202;2022-10-16T04:10:27;12.80;99.90
41060;DHT22;26811;53.160;8.202;2022-10-16T04:15:27;12.80;99.90
41060;DHT22;26811;53.160;8.202;2022-10-16T04:20:28;12.80;99.90
41060;DHT22;26811;53.160;8.202;2022-10-16T04:25:28;12.90;99.90
41060;DHT22;26811;53.160;8.202;2022-10-16T04:30:29;12.90;99.90
41060;DHT22;26811;53.160;8.202;2022-10-16T04:35:29;13.00;99.90
41060;DHT22;26811;53.160;8.202;2022-10-16T04:40:30;13.00;99.90
41060;DHT22;26811;53.160;8.202;2022-10-16T04:45:33;12.90;99.90
41060;DHT22;26811;53.160;8.202;2022-10-16T04:50:33;12.90;99.90
41060;DHT22;26811;53.160;8.202;2022-10-16T04:55:34;12.90;99.90
41060;DHT22;26811;53.160;8.202;2022-10-16T05:00:34;12.80;99.90
41060;DHT22;26811;53.160;8.202;2022-10-16T05:05:35;12.80;99.90
41060;DHT22;26811;53.160;8.202;2022-10-16T05:10:36;12.80;99.90
41060;DHT22;26811;53.160;8.202;2022-10-16T05:15:37;12.80;99.90
41060;DHT22;26811;53.160;8.202;2022-10-16T05:20:37;12.90;99.90
41060;DHT22;26811;53.160;8.202;2022-10-16T05:25:38;13.00;99.90
41060;DHT22;26811;53.160;8.202;2022-10-16T05:30:38;13.00;99.90
41060;DHT22;26811;53.160;8.202;2022-10-16T05:35:39;12.90;99.90
41060;DHT22;26811;53.160;8.202;2022-10-16T05:40:39;13.00;99.90
41060;DHT22;26811;53.160;8.202;2022-10-16T05:45:40;13.00;99.90
41060;DHT22;26811;53.160;8.202;2022-10-16T05:50:40;12.90;99.90
41060;DHT22;26811;53.160;8.202;2022-10-16T05:55:41;13.00;99.90
41060;DHT22;26811;53.160;8.202;2022-10-16T06:00:41;12.90;99.90
41060;DHT22;26811;53.160;8.202;2022-10-16T06:05:42;12.90;99.90
41060;DHT22;26811;53.160;8.202;2022-10-16T06:10:43;12.90;99.90
41060;DHT22;26811;53.160;8.202;2022-10-16T06:15:44;12.90;99.90
41060;DHT22;26811;53.160;8.202;2022-10-16T06:20:44;12.90;99.90
41060;DHT22;26811;53.160;8.202;2022-10-16T06:25:45;12.90;99.90
41060;DHT22;26811;53.160;8.202;2022-10-16T06:30:45;12.80;99.90
41060;DHT22;26811;53.160;8.202;2022-10-16T06:35:46;12.90;99.90
41060;DHT22;26811;53.160;8.202;2022-10-16T06:40:46;13.00;99.90
41060;DHT22;26811;53.160;8.202;2022-10-16T06:45:52;13.00;99.90
41060;DHT22;26811;53.160;8.202;2022-10-16T06:51:07;13.10;99.90
41060;DHT22;26811;53.160;8.202;2022-10-16T06:56:12;13.20;99.90
41060;DHT22;26811;53.160;8.202;2022-10-16T07:01:13;13.20;99.90
41060;DHT22;26811;53.160;8.202;2022-10-16T07:06:15;13.30;99.90
41060;DHT22;26811;53.160;8.202;2022-10-16T07:11:19;13.30;99.90
41060;DHT22;26811;53.160;8.202;2022-10-16T07:16:21;13.30;99.90
41060;DHT22;26811;53.160;8.202;2022-10-16T07:21:22;13.40;99.90
41060;DHT22;26811;53.160;8.202;2022-10-16T07:26:23;13.60;99.90
41060;DHT22;26811;53.160;8.202;2022-10-16T07:31:24;13.80;99.90
41060;DHT22;26811;53.160;8.202;2022-10-16T07:36:25;14.00;99.90
41060;DHT22;26811;53.160;8.202;2022-10-16T07:41:26;14.30;99.90
41060;DHT22;26811;53.160;8.202;2022-10-16T07:46:27;14.50;99.90
41060;DHT22;26811;53.160;8.202;2022-10-16T07:51:28;14.50;99.90
41060;DHT22;26811;53.160;8.202;2022-10-16T07:56:30;14.40;99.90
41060;DHT22;26811;53.160;8.202;2022-10-16T08:01:31;14.60;99.90
41060;DHT22;26811;53.160;8.202;2022-10-16T08:06:34;15.00;99.90
41060;DHT22;26811;53.160;8.202;2022-10-16T08:11:35;15.40;99.90
41060;DHT22;26811;53.160;8.202;2022-10-16T08:16:35;15.60;99.90
41060;DHT22;26811;53.160;8.202;2022-10-16T08:21:38;16.10;99.90
41060;DHT22;26811;53.160;8.202;2022-10-16T08:26:39;16.80;99.90
41060;DHT22;26811;53.160;8.202;2022-10-16T08:31:39;16.80;99.90
41060;DHT22;26811;53.160;8.202;2022-10-16T08:36:40;17.10;99.90
41060;DHT22;26811;53.160;8.202;2022-10-16T08:51:56;17.10;99.90
41060;DHT22;26811;53.160;8.202;2022-10-16T08:57:00;17.30;99.90
41060;DHT22;26811;53.160;8.202;2022-10-16T09:02:08;16.90;99.90
41060;DHT22;26811;53.160;8.202;2022-10-16T09:07:36;16.60;99.90
41060;DHT22;26811;53.160;8.202;2022-10-16T09:12:40;16.40;99.90
41060;DHT22;26811;53.160;8.202;2022-10-16T09:22:44;16.30;99.90
41060;DHT22;26811;53.160;8.202;2022-10-16T09:27:46;16.50;99.90
41060;DHT22;26811;53.160;8.202;2022-10-16T09:32:48;16.50;99.90
41060;DHT22;26811;53.160;8.202;2022-10-16T09:37:50;16.50;99.90
41060;DHT22;26811;53.160;8.202;2022-10-16T09:42:54;16.80;99.90
41060;DHT22;26811;53.160;8.202;2022-10-16T09:48:00;17.00;99.90
41060;DHT22;26811;53.160;8.202;2022-10-16T09:53:05;17.30;99.90
41060;DHT22;26811;53.160;8.202;2022-10-16T09:58:11;17.40;99.90
41060;DHT22;26811;53.160;8.202;2022-10-16T10:03:15;17.40;99.90
41060;DHT22;26811;53.160;8.202;2022-10-16T10:08:27;17.60;99.90
41060;DHT22;26811;53.160;8.202;2022-10-16T10:13:28;17.70;99.90
41060;DHT22;26811;53.160;8.202;2022-10-16T10:18:28;17.60;99.90
41060;DHT22;26811;53.160;8.202;2022-10-16T10:23:32;17.40;99.90
41060;DHT22;26811;53.160;8.202;2022-10-16T10:39:15;17.40;99.90
41060;DHT22;26811;53.160;8.202;2022-10-16T10:54:35;17.70;99.90
41060;DHT22;26811;53.160;8.202;2022-10-16T11:10:17;17.80;99.90
41060;DHT22;26811;53.160;8.202;2022-10-16T11:20:24;18.30;99.90
41060;DHT22;26811;53.160;8.202;2022-10-16T11:25:26;18.50;99.90
41060;DHT22;26811;53.160;8.202;2022-10-16T11:30:29;18.60;99.90
41060;DHT22;26811;53.160;8.202;2022-10-16T11:35:33;18.70;99.90
41060;DHT22;26811;53.160;8.202;2022-10-16T11:40:37;18.40;99.90
41060;DHT22;26811;53.160;8.202;2022-10-16T11:45:42;18.40;99.90
41060;DHT22;26811;53.160;8.202;2022-10-16T11:56:15;17.60;99.90
41060;DHT22;26811;53.160;8.202;2022-10-16T12:01:28;17.50;99.90
41060;DHT22;26811;53.160;8.202;2022-10-16T12:06:51;17.50;99.90
41060;DHT22;26811;53.160;8.202;2022-10-16T12:11:53;17.70;99.90
41060;DHT22;26811;53.160;8.202;2022-10-16T12:16:58;18.10;99.90
41060;DHT22;26811;53.160;8.202;2022-10-16T12:22:00;18.40;99.90
41060;DHT22;26811;53.160;8.202;2022-10-16T12:27:02;18.40;99.90
41060;DHT22;26811;53.160;8.202;2022-10-16T12:32:04;18.10;99.90
41060;DHT22;26811;53.160;8.202;2022-10-16T12:37:41;18.20;99.90
41060;DHT22;26811;53.160;8.202;2022-10-16T12:42:35;18.40;99.90
41060;DHT22;26811;53.160;8.202;2022-10-16T12:47:37;18.10;99.90
41060;DHT22;26811;53.160;8.202;2022-10-16T12:52:38;18.10;99.90
41060;DHT22;26811;53.160;8.202;2022-10-16T12:57:52;18.30;99.90
41060;DHT22;26811;53.160;8.202;2022-10-16T13:19:00;18.50;99.90
41060;DHT22;26811;53.160;8.202;2022-10-16T13:29:23;18.10;99.90
41060;DHT22;26811;53.160;8.202;2022-10-16T13:34:24;18.00;99.90
41060;DHT22;26811;53.160;8.202;2022-10-16T13:39:27;18.00;99.90
41060;DHT22;26811;53.160;8.202;2022-10-16T13:44:28;18.00;99.90
41060;DHT22;26811;53.160;8.202;2022-10-16T13:49:31;18.10;99.90
41060;DHT22;26811;53.160;8.202;2022-10-16T13:59:36;18.40;99.90
41060;DHT22;26811;53.160;8.202;2022-10-16T14:04:42;18.50;99.90
41060;DHT22;26811;53.160;8.202;2022-10-16T14:09:47;18.40;99.90
41060;DHT22;26811;53.160;8.202;2022-10-16T14:14:50;18.30;99.90
41060;DHT22;26811;53.160;8.202;2022-10-16T14:19:52;18.30;99.90
41060;DHT22;26811;53.160;8.202;2022-10-16T14:24:53;18.10;99.90
41060;DHT22;26811;53.160;8.202;2022-10-16T14:35:27;17.80;99.90
41060;DHT22;26811;53.160;8.202;2022-10-16T14:40:29;17.40;99.90
41060;DHT22;26811;53.160;8.202;2022-10-16T14:45:31;17.20;99.90
41060;DHT22;26811;53.160;8.202;2022-10-16T14:50:33;17.00;99.90
41060;DHT22;26811;53.160;8.202;2022-10-16T14:55:33;17.00;99.90
41060;DHT22;26811;53.160;8.202;2022-10-16T15:00:39;16.80;99.90
41060;DHT22;26811;53.160;8.202;2022-10-16T15:05:40;16.70;99.90
41060;DHT22;26811;53.160;8.202;2022-10-16T15:10:41;16.60;99.90
41060;DHT22;26811;53.160;8.202;2022-10-16T15:15:43;16.50;99.90
41060;DHT22;26811;53.160;8.202;2022-10-16T15:20:44;16.40;99.90
41060;DHT22;26811;53.160;8.202;2022-10-16T15:25:51;16.30;99.90
41060;DHT22;26811;53.160;8.202;2022-10-16T15:30:53;16.30;99.90
41060;DHT22;26811;53.160;8.202;2022-10-16T15:35:54;16.10;99.90
41060;DHT22;26811;53.160;8.202;2022-10-16T15:40:55;16.00;99.90
41060;DHT22;26811;53.160;8.202;2022-10-16T15:50:59;15.70;99.90
41060;DHT22;26811;53.160;8.202;2022-10-16T15:56:03;15.60;99.90
41060;DHT22;26811;53.160;8.202;2022-10-16T16:01:04;15.50;99.90
41060;DHT22;26811;53.160;8.202;2022-10-16T16:06:09;15.40;99.90
41060;DHT22;26811;53.160;8.202;2022-10-16T16:11:11;15.20;99.90
41060;DHT22;26811;53.160;8.202;2022-10-16T16:16:13;15.00;99.90
41060;DHT22;26811;53.160;8.202;2022-10-16T16:21:13;14.80;99.90
41060;DHT22;26811;53.160;8.202;2022-10-16T16:26:15;14.60;99.90
41060;DHT22;26811;53.160;8.202;2022-10-16T16:31:16;14.40;99.90
41060;DHT22;26811;53.160;8.202;2022-10-16T16:36:17;14.10;99.90
41060;DHT22;26811;53.160;8.202;2022-10-16T16:41:20;14.00;99.90
41060;DHT22;26811;53.160;8.202;2022-10-16T16:46:21;13.80;99.90
41060;DHT22;26811;53.160;8.202;2022-10-16T16:51:25;13.70;99.90
41060;DHT22;26811;53.160;8.202;2022-10-16T16:56:28;13.50;99.90
41060;DHT22;26811;53.160;8.202;2022-10-16T17:01:28;13.30;99.90
41060;DHT22;26811;53.160;8.202;2022-10-16T17:06:29;13.20;99.90
41060;DHT22;26811;53.160;8.202;2022-10-16T17:11:30;13.10;99.90
41060;DHT22;26811;53.160;8.202;2022-10-16T17:16:32;13.00;99.90
41060;DHT22;26811;53.160;8.202;2022-10-16T17:21:33;12.90;99.90
41060;DHT22;26811;53.160;8.202;2022-10-16T17:26:34;12.80;99.90
41060;DHT22;26811;53.160;8.202;2022-10-16T17:31:37;12.60;99.90
41060;DHT22;26811;53.160;8.202;2022-10-16T17:36:38;12.50;99.90
41060;DHT22;26811;53.160;8.202;2022-10-16T17:41:43;12.40;99.90
41060;DHT22;26811;53.160;8.202;2022-10-16T17:46:45;12.40;99.90
41060;DHT22;26811;53.160;8.202;2022-10-16T17:51:48;12.30;99.90
41060;DHT22;26811;53.160;8.202;2022-10-16T17:56:49;12.30;99.90
41060;DHT22;26811;53.160;8.202;2022-10-16T18:01:50;12.20;99.90
41060;DHT22;26811;53.160;8.202;2022-10-16T18:06:50;12.20;99.90
41060;DHT22;26811;53.160;8.202;2022-10-16T18:11:54;12.20;99.90
41060;DHT22;26811;53.160;8.202;2022-10-16T18:16:59;12.20;99.90
41060;DHT22;26811;53.160;8.202;2022-10-16T18:22:00;12.10;99.90
41060;DHT22;26811;53.160;8.202;2022-10-16T18:27:01;12.00;99.90
41060;DHT22;26811;53.160;8.202;2022-10-16T18:32:01;11.90;99.90
41060;DHT22;26811;53.160;8.202;2022-10-16T18:37:02;11.90;99.90
41060;DHT22;26811;53.160;8.202;2022-10-16T18:42:02;11.80;99.90
41060;DHT22;26811;53.160;8.202;2022-10-16T18:47:06;11.70;99.90
41060;DHT22;26811;53.160;8.202;2022-10-16T18:52:06;11.60;99.90
41060;DHT22;26811;53.160;8.202;2022-10-16T18:57:07;11.60;99.90
41060;DHT22;26811;53.160;8.202;2022-10-16T19:02:07;11.60;99.90
41060;DHT22;26811;53.160;8.202;2022-10-16T19:07:08;11.60;99.90
41060;DHT22;26811;53.160;8.202;2022-10-16T19:12:08;11.60;99.90
41060;DHT22;26811;53.160;8.202;2022-10-16T19:17:09;11.60;99.90
41060;DHT22;26811;53.160;8.202;2022-10-16T19:22:10;11.60;99.90
41060;DHT22;26811;53.160;8.202;2022-10-16T19:27:11;11.60;99.90
41060;DHT22;26811;53.160;8.202;2022-10-16T19:32:11;11.60;99.90
41060;DHT22;26811;53.160;8.202;2022-10-16T19:37:12;11.60;99.90
41060;DHT22;26811;53.160;8.202;2022-10-16T19:42:12;11.60;99.90
41060;DHT22;26811;53.160;8.202;2022-10-16T19:47:13;11.60;99.90
41060;DHT22;26811;53.160;8.202;2022-10-16T19:52:14;11.60;99.90
41060;DHT22;26811;53.160;8.202;2022-10-16T19:57:14;11.60;99.90
41060;DHT22;26811;53.160;8.202;2022-10-16T20:02:15;11.60;99.90
41060;DHT22;26811;53.160;8.202;2022-10-16T20:07:15;11.60;99.90
41060;DHT22;26811;53.160;8.202;2022-10-16T20:12:20;11.60;99.90
41060;DHT22;26811;53.160;8.202;2022-10-16T20:17:20;11.70;99.90
41060;DHT22;26811;53.160;8.202;2022-10-16T20:22:21;11.70;99.90
41060;DHT22;26811;53.160;8.202;2022-10-16T20:27:22;11.70;99.90
41060;DHT22;26811;53.160;8.202;2022-10-16T20:32:24;11.70;99.90
41060;DHT22;26811;53.160;8.202;2022-10-16T20:37:24;11.70;99.90
41060;DHT22;26811;53.160;8.202;2022-10-16T20:42:25;11.80;99.90
41060;DHT22;26811;53.160;8.202;2022-10-16T20:47:25;11.80;99.90
41060;DHT22;26811;53.160;8.202;2022-10-16T20:52:26;11.80;99.90
41060;DHT22;26811;53.160;8.202;2022-10-16T20:57:26;11.90;99.90
41060;DHT22;26811;53.160;8.202;2022-10-16T21:02:27;11.90;99.90
41060;DHT22;26811;53.160;8.202;2022-10-16T21:07:27;11.90;99.90
41060;DHT22;26811;53.160;8.202;2022-10-16T21:12:28;11.90;99.90
41060;DHT22;26811;53.160;8.202;2022-10-16T21:17:30;11.90;99.90
41060;DHT22;26811;53.160;8.202;2022-10-16T21:22:30;11.90;99.90
41060;DHT22;26811;53.160;8.202;2022-10-16T21:27:37;12.00;99.90
41060;DHT22;26811;53.160;8.202;2022-10-16T21:32:38;12.00;99.90
41060;DHT22;26811;53.160;8.202;2022-10-16T21:37:38;12.10;99.90
41060;DHT22;26811;53.160;8.202;2022-10-16T21:42:39;12.10;99.90
41060;DHT22;26811;53.160;8.202;2022-10-16T21:47:39;12.10;99.90
41060;DHT22;26811;53.160;8.202;2022-10-16T21:52:39;12.00;99.90
41060;DHT22;26811;53.160;8.202;2022-10-16T21:57:40;12.00;99.90
41060;DHT22;26811;53.160;8.202;2022-10-16T22:02:41;12.00;99.90
41060;DHT22;26811;53.160;8.202;2022-10-16T22:07:44;11.90;99.90
41060;DHT22;26811;53.160;8.202;2022-10-16T22:12:45;11.80;99.90
41060;DHT22;26811;53.160;8.202;2022-10-16T22:17:45;11.90;99.90
41060;DHT22;26811;53.160;8.202;2022-10-16T22:22:45;11.90;99.90
41060;DHT22;26811;53.160;8.202;2022-10-16T22:27:46;11.90;99.90
41060;DHT22;26811;53.160;8.202;2022-10-16T22:32:46;11.90;99.90
41060;DHT22;26811;53.160;8.202;2022-10-16T22:37:47;12.00;99.90
41060;DHT22;26811;53.160;8.202;2022-10-16T22:42:47;11.90;99.90
41060;DHT22;26811;53.160;8.202;2022-10-16T22:47:48;11.80;99.90
41060;DHT22;26811;53.160;8.202;2022-10-16T22:52:49;11.90;99.90
41060;DHT22;26811;53.160;8.202;2022-10-16T22:57:49;11.80;99.90
41060;DHT22;26811;53.160;8.202;2022-10-16T23:02:50;11.80;99.90
41060;DHT22;26811;53.160;8.202;2022-10-16T23:07:50;11.80;99.90
41060;DHT22;26811;53.160;8.202;2022-10-16T23:12:51;11.80;99.90
41060;DHT22;26811;53.160;8.202;2022-10-16T23:17:51;11.80;99.90
41060;DHT22;26811;53.160;8.202;2022-10-16T23:22:52;11.70;99.90
41060;DHT22;26811;53.160;8.202;2022-10-16T23:27:56;11.70;99.90
41060;DHT22;26811;53.160;8.202;2022-10-16T23:32:56;11.60;99.90
41060;DHT22;26811;53.160;8.202;2022-10-16T23:37:57;11.60;99.90
41060;DHT22;26811;53.160;8.202;2022-10-16T23:42:57;11.60;99.90
41060;DHT22;26811;53.160;8.202;2022-10-16T23:47:58;11.60;99.90
41060;DHT22;26811;53.160;8.202;2022-10-16T23:53:01;11.70;99.90
41060;DHT22;26811;53.160;8.202;2022-10-16T23:58:02;11.70;99.90
